createdAt,value
2023-03-12T00:00:21.050Z,1.61
2023-03-12T00:01:21.057Z,1.57
2023-03-12T00:02:21.028Z,1.61
2023-03-12T00:03:21.088Z,1.60
2023-03-12T00:04:20.988Z,1.60
2023-03-12T00:05:21.026Z,1.60
2023-03-12T00:06:20.967Z,1.60
2023-03-12T00:07:20.989Z,1.60
2023-03-12T00:08:20.950Z,1.60
2023-03-12T00:09:20.988Z,1.60
2023-03-12T00:10:20.946Z,1.61
2023-03-12T00:11:20.936Z,1.61
2023-03-12T00:12:20.930Z,1.60
2023-03-12T00:13:20.912Z,1.63
2023-03-12T00:14:20.886Z,1.57
2023-03-12T00:15:20.954Z,1.57
2023-03-12T00:16:20.935Z,1.57
2023-03-12T00:17:20.865Z,1.57
2023-03-12T00:18:20.857Z,1.57
2023-03-12T00:19:20.844Z,1.60
2023-03-12T00:20:20.865Z,1.61
2023-03-12T00:21:20.839Z,1.61
2023-03-12T00:22:20.817Z,1.63
2023-03-12T00:23:20.850Z,1.60
2023-03-12T00:24:20.784Z,1.61
2023-03-12T00:25:20.870Z,1.61
2023-03-12T00:26:20.792Z,1.61
2023-03-12T00:27:20.772Z,1.57
2023-03-12T00:28:20.763Z,1.61
2023-03-12T00:29:20.765Z,1.61
2023-03-12T00:30:20.756Z,1.60
2023-03-12T00:31:20.794Z,1.54
2023-03-12T00:32:20.761Z,1.56
2023-03-12T00:33:20.705Z,1.60
2023-03-12T00:34:20.695Z,1.56
2023-03-12T00:35:20.684Z,1.60
2023-03-12T00:36:20.679Z,1.57
2023-03-12T00:37:20.662Z,1.60
2023-03-12T00:38:20.689Z,1.56
2023-03-12T00:39:20.644Z,1.56
2023-03-12T00:40:20.657Z,1.57
2023-03-12T00:41:20.621Z,1.57
2023-03-12T00:42:20.617Z,1.54
2023-03-12T00:43:20.596Z,1.57
2023-03-12T00:44:20.602Z,1.60
2023-03-12T00:45:20.593Z,1.60
2023-03-12T00:46:20.611Z,1.61
2023-03-12T00:47:20.616Z,1.61
2023-03-12T00:48:20.541Z,1.57
2023-03-12T00:49:20.532Z,1.57
2023-03-12T00:50:20.548Z,1.54
2023-03-12T00:51:20.549Z,1.54
2023-03-12T00:52:20.527Z,1.56
2023-03-12T00:53:20.493Z,1.57
2023-03-12T00:54:20.520Z,1.60
2023-03-12T00:55:20.563Z,1.60
2023-03-12T00:56:20.477Z,1.61
2023-03-12T00:57:20.470Z,1.61
2023-03-12T00:58:20.454Z,1.57
2023-03-12T00:59:20.434Z,1.57
2023-03-12T01:00:21.257Z,1.57
2023-03-12T01:01:20.418Z,1.60
2023-03-12T01:02:20.415Z,1.61
2023-03-12T01:03:20.424Z,1.64
2023-03-12T01:04:20.454Z,1.64
2023-03-12T01:05:20.417Z,1.65
2023-03-12T01:06:20.374Z,1.65
2023-03-12T01:07:20.356Z,1.67
2023-03-12T01:08:20.349Z,1.67
2023-03-12T01:09:20.337Z,1.68
2023-03-12T01:10:20.382Z,1.70
2023-03-12T01:11:20.320Z,1.75
2023-03-12T01:12:20.333Z,1.75
2023-03-12T01:13:20.311Z,1.74
2023-03-12T01:14:20.307Z,1.77
2023-03-12T01:15:20.297Z,1.74
2023-03-12T01:16:20.319Z,1.77
2023-03-12T01:17:20.261Z,1.77
2023-03-12T01:18:20.279Z,1.79
2023-03-12T01:19:20.227Z,1.81
2023-03-12T01:20:20.279Z,1.82
2023-03-12T01:21:20.250Z,1.81
2023-03-12T01:22:20.233Z,1.81
2023-03-12T01:23:20.202Z,1.81
2023-03-12T01:24:20.196Z,1.82
2023-03-12T01:25:20.210Z,1.81
2023-03-12T01:26:20.178Z,1.81
2023-03-12T01:27:20.186Z,1.83
2023-03-12T01:28:20.188Z,1.83
2023-03-12T01:29:20.155Z,1.85
2023-03-12T01:30:20.140Z,1.86
2023-03-12T01:31:20.210Z,1.86
2023-03-12T01:32:20.144Z,1.88
2023-03-12T01:33:20.106Z,1.88
2023-03-12T01:34:20.093Z,1.88
2023-03-12T01:35:20.129Z,1.88
2023-03-12T01:36:20.116Z,1.86
2023-03-12T01:37:20.052Z,1.88
2023-03-12T01:38:20.050Z,1.86
2023-03-12T01:39:20.050Z,1.89
2023-03-12T01:40:20.044Z,1.88
2023-03-12T01:41:20.015Z,1.88
2023-03-12T01:42:20.016Z,1.83
2023-03-12T01:43:19.986Z,1.83
2023-03-12T01:44:19.975Z,1.83
2023-03-12T01:45:19.978Z,1.86
2023-03-12T01:46:19.977Z,1.85
2023-03-12T01:47:19.964Z,1.85
2023-03-12T01:48:19.973Z,1.88
2023-03-12T01:49:19.955Z,1.83
2023-03-12T01:50:19.916Z,1.86
2023-03-12T01:51:19.909Z,1.88
2023-03-12T01:52:19.909Z,1.88
2023-03-12T01:53:19.900Z,1.89
2023-03-12T01:54:19.892Z,1.90
2023-03-12T01:55:19.860Z,1.92
2023-03-12T01:56:19.893Z,1.92
2023-03-12T01:57:19.883Z,1.95
2023-03-12T01:58:19.858Z,1.93
2023-03-12T01:59:19.837Z,1.95
2023-03-12T02:00:19.815Z,1.98
2023-03-12T02:01:19.902Z,1.98
2023-03-12T02:02:19.830Z,2.00
2023-03-12T02:03:19.805Z,2.00
2023-03-12T02:04:19.874Z,2.01
2023-03-12T02:05:19.788Z,2.01
2023-03-12T02:06:19.760Z,2.01
2023-03-12T02:07:19.797Z,2.01
2023-03-12T02:08:19.746Z,2.01
2023-03-12T02:09:19.723Z,2.01
2023-03-12T02:10:19.727Z,2.00
2023-03-12T02:11:19.739Z,2.04
2023-03-12T02:12:19.693Z,2.01
2023-03-12T02:13:19.703Z,2.01
2023-03-12T02:14:19.703Z,2.02
2023-03-12T02:15:19.682Z,2.04
2023-03-12T02:16:19.715Z,2.04
2023-03-12T02:17:19.670Z,2.05
2023-03-12T02:18:19.658Z,2.07
2023-03-12T02:19:19.662Z,2.07
2023-03-12T02:20:19.639Z,2.11
2023-03-12T02:21:19.620Z,2.08
2023-03-12T02:22:19.609Z,2.08
2023-03-12T02:23:19.607Z,2.08
2023-03-12T02:24:19.591Z,2.07
2023-03-12T02:25:19.562Z,2.07
2023-03-12T02:26:19.574Z,2.05
2023-03-12T02:27:19.563Z,2.04
2023-03-12T02:28:19.585Z,2.04
2023-03-12T02:29:19.543Z,2.05
2023-03-12T02:30:19.536Z,2.05
2023-03-12T02:31:19.535Z,2.04
2023-03-12T02:32:19.562Z,2.04
2023-03-12T02:33:19.508Z,2.04
2023-03-12T02:34:19.479Z,2.01
2023-03-12T02:35:19.470Z,1.95
2023-03-12T02:36:19.483Z,2.02
2023-03-12T02:37:19.458Z,2.01
2023-03-12T02:38:19.433Z,2.01
2023-03-12T02:39:19.431Z,2.02
2023-03-12T02:40:19.424Z,2.01
2023-03-12T02:41:19.411Z,1.95
2023-03-12T02:42:19.396Z,1.98
2023-03-12T02:43:19.399Z,1.95
2023-03-12T02:44:19.389Z,1.92
2023-03-12T02:45:19.357Z,1.92
2023-03-12T02:46:19.436Z,1.92
2023-03-12T02:47:19.355Z,1.93
2023-03-12T02:48:19.352Z,1.89
2023-03-12T02:49:19.372Z,1.86
2023-03-12T02:50:19.323Z,1.85
2023-03-12T02:51:19.366Z,1.83
2023-03-12T02:52:19.312Z,1.79
2023-03-12T02:53:19.310Z,1.79
2023-03-12T02:54:19.305Z,1.75
2023-03-12T02:55:19.273Z,1.71
2023-03-12T02:56:19.286Z,1.70
2023-03-12T02:57:19.268Z,1.68
2023-03-12T02:58:19.282Z,1.65
2023-03-12T02:59:19.218Z,1.65
2023-03-12T03:00:19.252Z,1.65
2023-03-12T03:01:19.301Z,1.63
2023-03-12T03:02:19.218Z,1.63
2023-03-12T03:03:19.209Z,1.57
2023-03-12T03:04:19.208Z,1.56
2023-03-12T03:05:19.183Z,1.57
2023-03-12T03:06:19.233Z,1.54
2023-03-12T03:07:19.183Z,1.53
2023-03-12T03:08:19.137Z,1.53
2023-03-12T03:09:19.125Z,1.50
2023-03-12T03:10:20.284Z,1.49
2023-03-12T03:11:19.155Z,1.49
2023-03-12T03:12:19.102Z,1.46
2023-03-12T03:13:19.108Z,1.43
2023-03-12T03:14:19.123Z,1.43
2023-03-12T03:15:19.064Z,1.39
2023-03-12T03:16:19.099Z,1.43
2023-03-12T03:17:19.043Z,1.38
2023-03-12T03:18:19.047Z,1.38
2023-03-12T03:19:19.057Z,1.38
2023-03-12T03:20:19.073Z,1.36
2023-03-12T03:21:19.057Z,1.36
2023-03-12T03:22:19.011Z,1.35
2023-03-12T03:23:18.988Z,1.34
2023-03-12T03:24:18.980Z,1.36
2023-03-12T03:25:18.983Z,1.35
2023-03-12T03:26:19.005Z,1.32
2023-03-12T03:27:18.984Z,1.32
2023-03-12T03:28:18.947Z,1.28
2023-03-12T03:29:18.933Z,1.31
2023-03-12T03:30:18.942Z,1.31
2023-03-12T03:31:18.982Z,1.32
2023-03-12T03:32:19.000Z,1.28
2023-03-12T03:33:18.919Z,1.26
2023-03-12T03:34:18.889Z,1.26
2023-03-12T03:35:18.871Z,1.25
2023-03-12T03:36:18.903Z,1.26
2023-03-12T03:37:18.889Z,1.24
2023-03-12T03:38:18.849Z,1.25
2023-03-12T03:39:18.851Z,1.21
2023-03-12T03:40:18.825Z,1.21
2023-03-12T03:41:18.853Z,1.24
2023-03-12T03:42:18.843Z,1.18
2023-03-12T03:43:18.781Z,1.18
2023-03-12T03:44:18.797Z,1.17
2023-03-12T03:45:18.769Z,1.17
2023-03-12T03:46:18.842Z,1.16
2023-03-12T03:47:18.779Z,1.16
2023-03-12T03:48:18.736Z,1.13
2023-03-12T03:49:18.728Z,1.18
2023-03-12T03:50:18.724Z,1.14
2023-03-12T03:51:18.741Z,1.13
2023-03-12T03:52:18.705Z,1.13
2023-03-12T03:53:18.683Z,1.14
2023-03-12T03:54:18.699Z,1.11
2023-03-12T03:55:18.674Z,1.11
2023-03-12T03:56:18.701Z,1.11
2023-03-12T03:57:18.653Z,1.11
2023-03-12T03:58:18.642Z,1.08
2023-03-12T03:59:18.631Z,1.10
2023-03-12T04:00:18.630Z,1.10
2023-03-12T04:01:18.610Z,1.08
2023-03-12T04:02:18.603Z,1.07
2023-03-12T04:03:18.704Z,1.07
2023-03-12T04:04:18.657Z,1.07
2023-03-12T04:05:18.580Z,1.04
2023-03-12T04:06:18.558Z,1.04
2023-03-12T04:07:18.559Z,1.04
2023-03-12T04:08:18.544Z,1.04
2023-03-12T04:09:18.539Z,0.99
2023-03-12T04:10:18.523Z,1.00
2023-03-12T04:11:18.527Z,1.00
2023-03-12T04:12:18.491Z,1.00
2023-03-12T04:13:18.472Z,1.00
2023-03-12T04:14:18.480Z,0.96
2023-03-12T04:15:18.459Z,0.99
2023-03-12T04:16:18.542Z,0.99
2023-03-12T04:17:18.447Z,0.98
2023-03-12T04:18:18.473Z,0.96
2023-03-12T04:19:18.430Z,0.96
2023-03-12T04:20:18.415Z,0.95
2023-03-12T04:21:18.569Z,0.93
2023-03-12T04:22:18.388Z,0.92
2023-03-12T04:23:18.398Z,0.92
2023-03-12T04:24:18.421Z,0.93
2023-03-12T04:25:18.354Z,0.92
2023-03-12T04:26:18.502Z,0.93
2023-03-12T04:27:18.356Z,0.90
2023-03-12T04:28:18.335Z,0.92
2023-03-12T04:29:18.327Z,0.93
2023-03-12T04:30:18.327Z,0.95
2023-03-12T04:31:18.311Z,0.92
2023-03-12T04:32:18.359Z,0.90
2023-03-12T04:33:18.294Z,0.92
2023-03-12T04:34:18.272Z,0.92
2023-03-12T04:35:18.243Z,0.90
2023-03-12T04:36:18.240Z,0.88
2023-03-12T04:37:18.266Z,0.88
2023-03-12T04:38:18.267Z,0.86
2023-03-12T04:39:18.203Z,0.86
2023-03-12T04:40:18.208Z,0.86
2023-03-12T04:41:18.219Z,0.84
2023-03-12T04:42:18.260Z,0.81
2023-03-12T04:43:18.172Z,0.86
2023-03-12T04:44:18.195Z,0.84
2023-03-12T04:45:18.196Z,0.82
2023-03-12T04:46:18.250Z,0.84
2023-03-12T04:47:18.145Z,0.82
2023-03-12T04:48:18.147Z,0.82
2023-03-12T04:49:18.113Z,0.81
2023-03-12T04:50:18.133Z,0.80
2023-03-12T04:51:18.093Z,0.80
2023-03-12T04:52:18.150Z,0.81
2023-03-12T04:53:18.123Z,0.80
2023-03-12T04:54:18.097Z,0.78
2023-03-12T04:55:18.066Z,0.80
2023-03-12T04:56:18.071Z,0.80
2023-03-12T04:57:18.036Z,0.80
2023-03-12T04:58:18.071Z,0.80
2023-03-12T04:59:18.020Z,0.80
2023-03-12T05:00:18.015Z,0.80
2023-03-12T05:01:18.020Z,0.77
2023-03-12T05:02:18.019Z,0.77
2023-03-12T05:03:17.964Z,0.77
2023-03-12T05:04:17.918Z,0.74
2023-03-12T05:05:17.992Z,0.75
2023-03-12T05:06:17.995Z,0.72
2023-03-12T05:07:17.919Z,0.75
2023-03-12T05:08:17.886Z,0.74
2023-03-12T05:09:17.896Z,0.74
2023-03-12T05:10:17.866Z,0.74
2023-03-12T05:11:18.794Z,0.71
2023-03-12T05:12:17.862Z,0.70
2023-03-12T05:13:17.842Z,0.72
2023-03-12T05:14:17.847Z,0.70
2023-03-12T05:15:17.825Z,0.70
2023-03-12T05:16:17.879Z,0.71
2023-03-12T05:17:17.803Z,0.71
2023-03-12T05:18:17.786Z,0.71
2023-03-12T05:19:17.779Z,0.72
2023-03-12T05:20:17.816Z,0.71
2023-03-12T05:21:17.761Z,0.71
2023-03-12T05:22:17.755Z,0.72
2023-03-12T05:23:17.726Z,0.72
2023-03-12T05:24:17.730Z,0.72
2023-03-12T05:25:17.738Z,0.74
2023-03-12T05:26:17.696Z,0.72
2023-03-12T05:27:17.711Z,0.74
2023-03-12T05:28:17.682Z,0.72
2023-03-12T05:29:17.747Z,0.74
2023-03-12T05:30:17.684Z,0.72
2023-03-12T05:31:17.732Z,0.74
2023-03-12T05:32:17.705Z,0.75
2023-03-12T05:33:17.656Z,0.74
2023-03-12T05:34:17.620Z,0.74
2023-03-12T05:35:17.671Z,0.74
2023-03-12T05:36:17.613Z,0.72
2023-03-12T05:37:17.622Z,0.70
2023-03-12T05:38:17.572Z,0.68
2023-03-12T05:39:17.588Z,0.68
2023-03-12T05:40:17.568Z,0.67
2023-03-12T05:41:17.567Z,0.67
2023-03-12T05:42:17.548Z,0.67
2023-03-12T05:43:17.529Z,0.64
2023-03-12T05:44:17.526Z,0.67
2023-03-12T05:45:17.541Z,0.67
2023-03-12T05:46:17.619Z,0.67
2023-03-12T05:47:17.538Z,0.68
2023-03-12T05:48:17.478Z,0.68
2023-03-12T05:49:17.497Z,0.64
2023-03-12T05:50:17.456Z,0.67
2023-03-12T05:51:17.473Z,0.64
2023-03-12T05:52:17.451Z,0.64
2023-03-12T05:53:17.440Z,0.67
2023-03-12T05:54:17.468Z,0.70
2023-03-12T05:55:17.417Z,0.71
2023-03-12T05:56:17.459Z,0.72
2023-03-12T05:57:17.632Z,0.74
2023-03-12T05:58:17.464Z,0.72
2023-03-12T05:59:17.433Z,0.77
2023-03-12T06:00:17.381Z,0.78
2023-03-12T06:01:17.358Z,0.77
2023-03-12T06:02:17.991Z,0.77
2023-03-12T06:03:17.384Z,0.77
2023-03-12T06:04:17.320Z,0.78
2023-03-12T06:05:17.324Z,0.78
2023-03-12T06:06:17.338Z,0.77
2023-03-12T06:07:17.317Z,0.75
2023-03-12T06:08:17.276Z,0.80
2023-03-12T06:09:17.295Z,0.78
2023-03-12T06:10:17.261Z,0.78
2023-03-12T06:11:17.247Z,0.81
2023-03-12T06:12:17.250Z,0.80
2023-03-12T06:13:17.252Z,0.82
2023-03-12T06:14:17.214Z,0.82
2023-03-12T06:15:17.231Z,0.86
2023-03-12T06:16:17.261Z,0.84
2023-03-12T06:17:17.232Z,0.84
2023-03-12T06:18:17.190Z,0.84
2023-03-12T06:19:17.203Z,0.86
2023-03-12T06:20:17.146Z,0.84
2023-03-12T06:21:17.150Z,0.90
2023-03-12T06:22:17.143Z,0.89
2023-03-12T06:23:17.744Z,0.93
2023-03-12T06:24:17.134Z,0.95
2023-03-12T06:25:17.106Z,0.96
2023-03-12T06:26:17.089Z,0.96
2023-03-12T06:27:17.102Z,0.95
2023-03-12T06:28:17.083Z,0.96
2023-03-12T06:29:17.084Z,0.96
2023-03-12T06:30:17.071Z,0.96
2023-03-12T06:31:17.120Z,0.96
2023-03-12T06:32:17.157Z,0.95
2023-03-12T06:33:17.031Z,0.93
2023-03-12T06:34:17.021Z,0.95
2023-03-12T06:35:17.000Z,0.96
2023-03-12T06:36:16.984Z,0.95
2023-03-12T06:37:17.015Z,0.93
2023-03-12T06:38:16.995Z,0.95
2023-03-12T06:39:16.986Z,0.96
2023-03-12T06:40:16.950Z,0.99
2023-03-12T06:41:16.955Z,0.98
2023-03-12T06:42:16.944Z,1.04
2023-03-12T06:43:16.936Z,1.04
2023-03-12T06:44:16.903Z,1.04
2023-03-12T06:45:16.908Z,1.06
2023-03-12T06:46:16.965Z,1.13
2023-03-12T06:47:17.787Z,1.17
2023-03-12T06:48:16.884Z,1.17
2023-03-12T06:49:16.861Z,1.24
2023-03-12T06:50:16.865Z,1.25
2023-03-12T06:51:16.844Z,1.29
2023-03-12T06:52:16.859Z,1.32
2023-03-12T06:53:16.814Z,1.35
2023-03-12T06:54:16.832Z,1.34
2023-03-12T06:55:16.848Z,1.42
2023-03-12T06:56:16.817Z,1.47
2023-03-12T06:57:16.817Z,1.49
2023-03-12T06:58:16.778Z,1.57
2023-03-12T06:59:16.756Z,1.64
2023-03-12T07:00:16.755Z,1.71
2023-03-12T07:01:16.790Z,1.86
2023-03-12T07:02:16.820Z,2.18
2023-03-12T07:03:16.725Z,2.45
2023-03-12T07:04:16.722Z,2.73
2023-03-12T07:05:16.766Z,2.99
2023-03-12T07:06:16.744Z,3.22
2023-03-12T07:07:16.689Z,3.45
2023-03-12T07:08:16.669Z,3.63
2023-03-12T07:09:16.672Z,3.84
2023-03-12T07:10:16.672Z,4.21
2023-03-12T07:11:16.669Z,4.29
2023-03-12T07:12:16.697Z,4.67
2023-03-12T07:13:16.651Z,5.11
2023-03-12T07:14:16.623Z,5.49
2023-03-12T07:15:16.607Z,5.85
2023-03-12T07:16:16.719Z,5.81
2023-03-12T07:17:16.607Z,5.75
2023-03-12T07:18:16.586Z,5.67
2023-03-12T07:19:16.698Z,5.90
2023-03-12T07:20:16.551Z,6.02
2023-03-12T07:21:16.620Z,6.06
2023-03-12T07:22:16.588Z,6.05
2023-03-12T07:23:16.529Z,5.75
2023-03-12T07:24:16.529Z,5.75
2023-03-12T07:25:18.631Z,5.51
2023-03-12T07:26:16.494Z,5.37
2023-03-12T07:27:16.567Z,5.30
2023-03-12T07:28:16.516Z,5.15
2023-03-12T07:29:16.515Z,5.08
2023-03-12T07:30:16.465Z,5.08
2023-03-12T07:31:16.498Z,5.06
2023-03-12T07:32:16.531Z,5.02
2023-03-12T07:33:16.626Z,5.09
2023-03-12T07:34:16.649Z,5.22
2023-03-12T07:35:16.421Z,5.27
2023-03-12T07:36:16.586Z,5.08
2023-03-12T07:37:16.403Z,5.24
2023-03-12T07:38:16.402Z,5.45
2023-03-12T07:39:16.373Z,5.55
2023-03-12T07:40:16.350Z,5.48
2023-03-12T07:41:16.391Z,5.49
2023-03-12T07:42:16.412Z,5.49
2023-03-12T07:43:16.323Z,5.70
2023-03-12T07:44:16.317Z,5.77
2023-03-12T07:45:16.327Z,6.42
2023-03-12T07:46:16.328Z,7.11
2023-03-12T07:47:23.773Z,8.22
2023-03-12T07:48:16.325Z,8.65
2023-03-12T07:49:16.275Z,9.34
2023-03-12T07:50:16.317Z,9.77
2023-03-12T07:51:16.233Z,10.32
2023-03-12T07:52:16.297Z,10.80
2023-03-12T07:53:16.257Z,10.98
2023-03-12T07:54:16.206Z,11.33
2023-03-12T07:55:16.601Z,11.06
2023-03-12T07:56:16.375Z,11.06
2023-03-12T07:57:16.368Z,11.23
2023-03-12T07:58:16.326Z,11.19
2023-03-12T07:59:16.271Z,11.60
2023-03-12T08:00:16.185Z,12.11
2023-03-12T08:01:16.232Z,12.43
2023-03-12T08:02:16.211Z,12.69
2023-03-12T08:03:16.236Z,13.03
2023-03-12T08:04:16.157Z,12.81
2023-03-12T08:05:16.108Z,13.07
2023-03-12T08:06:16.101Z,13.39
2023-03-12T08:07:16.126Z,13.81
2023-03-12T08:08:16.080Z,13.99
2023-03-12T08:09:16.068Z,14.06
2023-03-12T08:10:16.084Z,14.53
2023-03-12T08:11:16.026Z,14.53
2023-03-12T08:12:16.113Z,14.35
2023-03-12T08:13:16.028Z,14.31
2023-03-12T08:14:16.118Z,14.16
2023-03-12T08:15:16.013Z,13.90
2023-03-12T08:16:16.061Z,12.62
2023-03-12T08:17:15.984Z,12.11
2023-03-12T08:18:15.969Z,12.11
2023-03-12T08:19:15.940Z,12.23
2023-03-12T08:20:15.926Z,12.19
2023-03-12T08:21:16.560Z,12.34
2023-03-12T08:22:15.924Z,12.67
2023-03-12T08:23:15.921Z,13.39
2023-03-12T08:24:15.881Z,13.98
2023-03-12T08:25:15.885Z,13.99
2023-03-12T08:26:15.861Z,13.87
2023-03-12T08:27:15.856Z,13.57
2023-03-12T08:28:15.856Z,13.36
2023-03-12T08:29:15.840Z,13.90
2023-03-12T08:30:15.824Z,14.69
2023-03-12T08:31:15.890Z,15.31
2023-03-12T08:32:15.965Z,15.62
2023-03-12T08:33:15.794Z,16.03
2023-03-12T08:34:15.939Z,16.30
2023-03-12T08:35:15.761Z,16.66
2023-03-12T08:36:15.747Z,16.90
2023-03-12T08:37:15.758Z,17.22
2023-03-12T08:38:15.743Z,17.36
2023-03-12T08:39:15.770Z,17.47
2023-03-12T08:40:15.700Z,16.95
2023-03-12T08:41:15.723Z,15.96
2023-03-12T08:42:15.721Z,15.23
2023-03-12T08:43:15.703Z,14.23
2023-03-12T08:44:15.661Z,14.19
2023-03-12T08:45:15.654Z,14.13
2023-03-12T08:46:15.668Z,13.66
2023-03-12T08:47:15.641Z,13.12
2023-03-12T08:48:15.740Z,12.80
2023-03-12T08:49:15.623Z,12.43
2023-03-12T08:50:15.618Z,12.29
2023-03-12T08:51:16.876Z,12.00
2023-03-12T08:52:15.603Z,11.69
2023-03-12T08:53:15.598Z,11.41
2023-03-12T08:54:15.575Z,11.27
2023-03-12T08:55:15.565Z,10.80
2023-03-12T08:56:15.554Z,10.10
2023-03-12T08:57:15.543Z,9.37
2023-03-12T08:58:15.551Z,9.26
2023-03-12T08:59:15.519Z,9.40
2023-03-12T09:00:15.527Z,9.53
2023-03-12T09:01:15.561Z,9.75
2023-03-12T09:02:15.498Z,10.14
2023-03-12T09:03:16.394Z,10.28
2023-03-12T09:04:15.479Z,10.16
2023-03-12T09:05:15.464Z,9.96
2023-03-12T09:06:15.437Z,9.74
2023-03-12T09:07:15.444Z,9.50
2023-03-12T09:08:15.429Z,9.40
2023-03-12T09:09:15.411Z,9.58
2023-03-12T09:10:15.402Z,10.04
2023-03-12T09:11:22.547Z,10.25
2023-03-12T09:12:15.413Z,10.65
2023-03-12T09:13:16.179Z,11.19
2023-03-12T09:14:57.639Z,11.79
2023-03-12T09:15:15.353Z,12.13
2023-03-12T09:16:15.390Z,12.54
2023-03-12T09:17:15.335Z,12.59
2023-03-12T09:18:15.332Z,12.36
2023-03-12T09:19:15.326Z,12.62
2023-03-12T09:20:15.295Z,13.16
2023-03-12T09:21:15.286Z,13.62
2023-03-12T09:22:15.282Z,14.13
2023-03-12T09:23:15.292Z,13.68
2023-03-12T09:24:15.240Z,13.41
2023-03-12T09:25:15.275Z,12.98
2023-03-12T09:26:15.215Z,12.74
2023-03-12T09:27:15.497Z,11.74
2023-03-12T09:28:16.656Z,11.17
2023-03-12T09:29:15.194Z,10.18
2023-03-12T09:30:15.225Z,9.52
2023-03-12T09:31:15.276Z,9.44
2023-03-12T09:32:15.182Z,9.85
2023-03-12T09:33:15.180Z,10.28
2023-03-12T09:34:15.169Z,10.52
2023-03-12T09:35:15.131Z,11.05
2023-03-12T09:36:15.115Z,11.20
2023-03-12T09:37:15.115Z,10.22
2023-03-12T09:38:15.106Z,9.56
2023-03-12T09:39:15.081Z,8.73
2023-03-12T09:40:15.074Z,7.99
2023-03-12T09:41:15.070Z,7.55
2023-03-12T09:42:15.065Z,7.18
2023-03-12T09:43:15.094Z,7.16
2023-03-12T09:44:15.026Z,7.01
2023-03-12T09:45:15.013Z,6.96
2023-03-12T09:46:15.133Z,6.97
2023-03-12T09:47:15.064Z,6.78
2023-03-12T09:48:15.036Z,6.79
2023-03-12T09:49:14.965Z,6.79
2023-03-12T09:50:14.970Z,6.65
2023-03-12T09:51:14.974Z,6.69
2023-03-12T09:52:14.960Z,6.82
2023-03-12T09:53:14.959Z,7.23
2023-03-12T09:54:14.938Z,7.47
2023-03-12T09:55:15.001Z,7.73
2023-03-12T09:56:14.905Z,8.22
2023-03-12T09:57:14.897Z,8.96
2023-03-12T09:58:14.976Z,9.24
2023-03-12T09:59:14.910Z,8.55
2023-03-12T10:00:14.869Z,8.20
2023-03-12T10:01:14.847Z,9.10
2023-03-12T10:02:14.881Z,9.99
2023-03-12T10:03:14.897Z,10.09
2023-03-12T10:04:14.882Z,9.32
2023-03-12T10:05:14.898Z,8.61
2023-03-12T10:06:14.884Z,8.68
2023-03-12T10:07:14.778Z,8.49
2023-03-12T10:08:24.656Z,8.39
2023-03-12T10:09:14.765Z,8.09
2023-03-12T10:10:14.777Z,7.82
2023-03-12T10:11:15.518Z,7.84
2023-03-12T10:12:14.771Z,8.06
2023-03-12T10:13:14.736Z,8.14
2023-03-12T10:14:23.497Z,8.02
2023-03-12T10:15:14.712Z,7.86
2023-03-12T10:16:14.738Z,8.07
2023-03-12T10:17:14.762Z,8.12
2023-03-12T10:18:14.823Z,8.24
2023-03-12T10:19:14.669Z,8.36
2023-03-12T10:20:14.676Z,8.20
2023-03-12T10:21:14.673Z,7.94
2023-03-12T10:22:14.652Z,7.95
2023-03-12T10:23:14.653Z,8.17
2023-03-12T10:24:14.651Z,8.14
2023-03-12T10:25:14.599Z,8.12
2023-03-12T10:26:14.675Z,8.10
2023-03-12T10:27:14.631Z,8.20
2023-03-12T10:28:14.609Z,8.36
2023-03-12T10:29:14.611Z,8.21
2023-03-12T10:30:14.549Z,8.13
2023-03-12T10:31:14.659Z,7.79
2023-03-12T10:32:14.608Z,8.06
2023-03-12T10:33:14.559Z,8.18
2023-03-12T10:34:14.522Z,7.95
2023-03-12T10:35:14.489Z,7.85
2023-03-12T10:36:14.558Z,7.71
2023-03-12T10:37:14.478Z,7.71
2023-03-12T10:38:14.489Z,8.14
2023-03-12T10:39:14.462Z,8.45
2023-03-12T10:40:14.483Z,8.82
2023-03-12T10:41:14.435Z,9.10
2023-03-12T10:42:14.425Z,9.40
2023-03-12T10:43:14.448Z,10.06
2023-03-12T10:44:14.453Z,10.06
2023-03-12T10:45:14.391Z,9.34
2023-03-12T10:46:14.447Z,8.91
2023-03-12T10:47:14.380Z,8.86
2023-03-12T10:48:14.396Z,8.68
2023-03-12T10:49:14.363Z,8.67
2023-03-12T10:50:14.367Z,8.67
2023-03-12T10:51:14.335Z,8.65
2023-03-12T10:52:14.328Z,9.16
2023-03-12T10:53:14.336Z,9.59
2023-03-12T10:54:14.329Z,9.77
2023-03-12T10:55:14.321Z,9.73
2023-03-12T10:56:14.290Z,9.71
2023-03-12T10:57:14.252Z,9.49
2023-03-12T10:58:14.286Z,9.62
2023-03-12T10:59:14.660Z,9.92
2023-03-12T11:00:14.255Z,9.68
2023-03-12T11:01:14.216Z,9.58
2023-03-12T11:02:14.268Z,9.31
2023-03-12T11:03:14.213Z,9.19
2023-03-12T11:04:14.222Z,8.85
2023-03-12T11:05:14.199Z,8.52
2023-03-12T11:06:14.216Z,8.60
2023-03-12T11:07:14.223Z,8.70
2023-03-12T11:08:14.165Z,8.78
2023-03-12T11:09:16.993Z,8.98
2023-03-12T11:10:14.544Z,9.12
2023-03-12T11:11:14.106Z,9.27
2023-03-12T11:12:14.115Z,9.32
2023-03-12T11:13:14.105Z,9.34
2023-03-12T11:14:14.115Z,9.53
2023-03-12T11:15:14.063Z,9.75
2023-03-12T11:16:14.079Z,10.09
2023-03-12T11:17:14.050Z,10.06
2023-03-12T11:18:14.051Z,9.86
2023-03-12T11:19:14.061Z,9.65
2023-03-12T11:20:14.070Z,9.56
2023-03-12T11:21:13.999Z,9.56
2023-03-12T11:22:14.026Z,9.70
2023-03-12T11:23:14.013Z,9.81
2023-03-12T11:24:13.993Z,9.98
2023-03-12T11:25:13.961Z,10.04
2023-03-12T11:26:13.974Z,9.95
2023-03-12T11:27:13.936Z,10.09
2023-03-12T11:28:13.951Z,10.09
2023-03-12T11:29:13.997Z,9.71
2023-03-12T11:30:13.961Z,9.62
2023-03-12T11:31:14.032Z,9.67
2023-03-12T11:32:13.916Z,9.74
2023-03-12T11:33:13.914Z,9.75
2023-03-12T11:34:13.884Z,9.80
2023-03-12T11:35:13.857Z,9.80
2023-03-12T11:36:13.867Z,9.55
2023-03-12T11:37:13.932Z,9.13
2023-03-12T11:38:13.843Z,8.80
2023-03-12T11:39:13.829Z,8.71
2023-03-12T11:40:13.831Z,8.78
2023-03-12T11:41:13.790Z,8.60
2023-03-12T11:42:13.786Z,8.43
2023-03-12T11:43:13.793Z,8.22
2023-03-12T11:44:13.784Z,8.31
2023-03-12T11:45:13.761Z,8.63
2023-03-12T11:46:13.784Z,8.58
2023-03-12T11:47:13.783Z,8.65
2023-03-12T11:48:13.773Z,8.40
2023-03-12T11:49:13.723Z,8.50
2023-03-12T11:50:13.713Z,8.49
2023-03-12T11:51:13.892Z,8.49
2023-03-12T11:52:13.675Z,8.46
2023-03-12T11:53:13.674Z,8.54
2023-03-12T11:54:13.672Z,8.55
2023-03-12T11:55:16.332Z,8.45
2023-03-12T11:56:13.681Z,8.12
2023-03-12T11:57:13.636Z,7.94
2023-03-12T11:58:13.621Z,7.94
2023-03-12T11:59:13.628Z,8.00
2023-03-12T12:00:13.621Z,8.10
2023-03-12T12:01:13.584Z,8.20
2023-03-12T12:02:13.691Z,8.32
2023-03-12T12:03:13.609Z,8.34
2023-03-12T12:04:13.578Z,8.32
2023-03-12T12:05:13.557Z,8.27
2023-03-12T12:06:13.570Z,8.18
2023-03-12T12:07:13.544Z,8.09
2023-03-12T12:08:13.563Z,8.10
2023-03-12T12:09:13.562Z,7.94
2023-03-12T12:10:13.489Z,7.66
2023-03-12T12:11:13.477Z,7.51
2023-03-12T12:12:13.472Z,7.48
2023-03-12T12:13:13.484Z,7.33
2023-03-12T12:14:13.560Z,7.18
2023-03-12T12:15:13.431Z,7.12
2023-03-12T12:16:13.485Z,7.05
2023-03-12T12:17:13.413Z,6.97
2023-03-12T12:18:13.451Z,6.99
2023-03-12T12:19:13.637Z,6.99
2023-03-12T12:20:13.410Z,6.99
2023-03-12T12:21:13.373Z,7.09
2023-03-12T12:22:13.392Z,7.18
2023-03-12T12:23:13.388Z,7.30
2023-03-12T12:24:13.622Z,7.51
2023-03-12T12:25:13.363Z,7.63
2023-03-12T12:26:13.356Z,7.69
2023-03-12T12:27:13.312Z,7.82
2023-03-12T12:28:13.328Z,7.82
2023-03-12T12:29:13.345Z,7.76
2023-03-12T12:30:13.320Z,7.66
2023-03-12T12:31:13.272Z,7.47
2023-03-12T12:32:13.280Z,7.30
2023-03-12T12:33:13.256Z,7.18
2023-03-12T12:34:13.242Z,7.00
2023-03-12T12:35:14.220Z,6.97
2023-03-12T12:36:13.274Z,7.04
2023-03-12T12:37:13.209Z,7.09
2023-03-12T12:38:13.206Z,7.29
2023-03-12T12:39:13.205Z,7.33
2023-03-12T12:40:13.191Z,7.34
2023-03-12T12:41:13.160Z,7.30
2023-03-12T12:42:13.162Z,7.19
2023-03-12T12:43:13.152Z,7.18
2023-03-12T12:44:13.189Z,7.21
2023-03-12T12:45:13.134Z,7.21
2023-03-12T12:46:13.285Z,7.19
2023-03-12T12:47:13.112Z,7.23
2023-03-12T12:48:13.106Z,7.26
2023-03-12T12:49:13.121Z,7.32
2023-03-12T12:50:13.064Z,7.26
2023-03-12T12:51:13.069Z,7.34
2023-03-12T12:52:13.062Z,7.29
2023-03-12T12:53:13.060Z,7.23
2023-03-12T12:54:13.052Z,7.21
2023-03-12T12:55:13.033Z,7.39
2023-03-12T12:56:15.316Z,7.51
2023-03-12T12:57:13.010Z,7.48
2023-03-12T12:58:13.045Z,7.32
2023-03-12T12:59:13.012Z,7.29
2023-03-12T13:00:12.992Z,7.37
2023-03-12T13:01:12.989Z,7.36
2023-03-12T13:02:13.000Z,7.32
2023-03-12T13:03:12.918Z,7.21
2023-03-12T13:04:12.931Z,7.18
2023-03-12T13:05:12.904Z,7.26
2023-03-12T13:06:12.905Z,7.26
2023-03-12T13:07:12.881Z,7.33
2023-03-12T13:08:12.920Z,7.23
2023-03-12T13:09:12.871Z,7.14
2023-03-12T13:10:12.889Z,7.09
2023-03-12T13:11:19.540Z,7.07
2023-03-12T13:12:12.851Z,7.07
2023-03-12T13:13:12.819Z,7.12
2023-03-12T13:14:12.846Z,7.12
2023-03-12T13:15:12.810Z,7.08